sensor_id;sensor_type;location;lat;lon;timestamp;P1;durP1;ratioP1;P2;durP2;ratioP2
64938;SDS011;51453;47.738;7.420;2022-08-07T00:00:50;2.80;;;0.63;;
64938;SDS011;51453;47.738;7.420;2022-08-07T00:03:16;0.40;;;0.40;;
64938;SDS011;51453;47.738;7.420;2022-08-07T00:05:41;1.20;;;0.40;;
64938;SDS011;51453;47.738;7.420;2022-08-07T00:08:07;1.65;;;0.70;;
64938;SDS011;51453;47.738;7.420;2022-08-07T00:10:33;0.98;;;0.40;;
64938;SDS011;51453;47.738;7.420;2022-08-07T00:13:00;2.35;;;0.50;;
64938;SDS011;51453;47.738;7.420;2022-08-07T00:15:28;2.10;;;1.02;;
64938;SDS011;51453;47.738;7.420;2022-08-07T00:17:55;3.78;;;0.60;;
64938;SDS011;51453;47.738;7.420;2022-08-07T00:20:21;4.13;;;0.50;;
64938;SDS011;51453;47.738;7.420;2022-08-07T00:22:47;2.58;;;0.63;;
64938;SDS011;51453;47.738;7.420;2022-08-07T00:25:13;2.63;;;0.70;;
64938;SDS011;51453;47.738;7.420;2022-08-07T00:27:38;1.00;;;0.57;;
64938;SDS011;51453;47.738;7.420;2022-08-07T00:30:04;3.38;;;0.60;;
64938;SDS011;51453;47.738;7.420;2022-08-07T00:32:30;6.18;;;0.60;;
64938;SDS011;51453;47.738;7.420;2022-08-07T00:34:56;4.25;;;0.65;;
64938;SDS011;51453;47.738;7.420;2022-08-07T00:37:21;3.25;;;0.70;;
64938;SDS011;51453;47.738;7.420;2022-08-07T00:39:48;3.78;;;0.77;;
64938;SDS011;51453;47.738;7.420;2022-08-07T00:42:14;0.70;;;0.45;;
64938;SDS011;51453;47.738;7.420;2022-08-07T00:44:40;1.73;;;0.60;;
64938;SDS011;51453;47.738;7.420;2022-08-07T00:47:06;3.13;;;0.40;;
64938;SDS011;51453;47.738;7.420;2022-08-07T00:49:32;3.67;;;0.63;;
64938;SDS011;51453;47.738;7.420;2022-08-07T00:51:58;0.82;;;0.55;;
64938;SDS011;51453;47.738;7.420;2022-08-07T00:54:24;3.35;;;0.63;;
64938;SDS011;51453;47.738;7.420;2022-08-07T00:56:50;2.42;;;0.60;;
64938;SDS011;51453;47.738;7.420;2022-08-07T00:59:19;3.25;;;0.50;;
64938;SDS011;51453;47.738;7.420;2022-08-07T01:01:45;4.07;;;0.60;;
64938;SDS011;51453;47.738;7.420;2022-08-07T01:04:12;0.57;;;0.40;;
64938;SDS011;51453;47.738;7.420;2022-08-07T01:06:39;6.82;;;0.60;;
64938;SDS011;51453;47.738;7.420;2022-08-07T01:09:05;1.95;;;0.60;;
64938;SDS011;51453;47.738;7.420;2022-08-07T01:11:31;1.20;;;0.65;;
64938;SDS011;51453;47.738;7.420;2022-08-07T01:13:57;1.70;;;0.50;;
64938;SDS011;51453;47.738;7.420;2022-08-07T01:16:23;2.83;;;0.50;;
64938;SDS011;51453;47.738;7.420;2022-08-07T01:18:49;2.17;;;0.40;;
64938;SDS011;51453;47.738;7.420;2022-08-07T01:21:16;1.95;;;0.50;;
64938;SDS011;51453;47.738;7.420;2022-08-07T01:23:45;3.70;;;0.60;;
64938;SDS011;51453;47.738;7.420;2022-08-07T01:26:13;3.30;;;0.88;;
64938;SDS011;51453;47.738;7.420;2022-08-07T01:28:40;1.77;;;0.50;;
64938;SDS011;51453;47.738;7.420;2022-08-07T01:31:15;1.63;;;0.50;;
64938;SDS011;51453;47.738;7.420;2022-08-07T01:33:42;3.78;;;0.55;;
64938;SDS011;51453;47.738;7.420;2022-08-07T01:36:08;0.63;;;0.50;;
64938;SDS011;51453;47.738;7.420;2022-08-07T01:38:35;1.48;;;0.50;;
64938;SDS011;51453;47.738;7.420;2022-08-07T01:41:03;2.10;;;0.60;;
64938;SDS011;51453;47.738;7.420;2022-08-07T01:43:30;0.55;;;0.50;;
64938;SDS011;51453;47.738;7.420;2022-08-07T01:45:56;3.95;;;0.60;;
64938;SDS011;51453;47.738;7.420;2022-08-07T01:48:22;3.53;;;0.50;;
64938;SDS011;51453;47.738;7.420;2022-08-07T01:50:58;1.42;;;0.60;;
64938;SDS011;51453;47.738;7.420;2022-08-07T01:53:29;2.10;;;0.53;;
64938;SDS011;51453;47.738;7.420;2022-08-07T01:56:00;3.30;;;0.50;;
64938;SDS011;51453;47.738;7.420;2022-08-07T01:58:31;7.70;;;0.60;;
64938;SDS011;51453;47.738;7.420;2022-08-07T02:01:01;3.08;;;0.80;;
64938;SDS011;51453;47.738;7.420;2022-08-07T02:03:44;0.90;;;0.40;;
64938;SDS011;51453;47.738;7.420;2022-08-07T02:06:15;3.30;;;0.50;;
64938;SDS011;51453;47.738;7.420;2022-08-07T02:08:43;2.55;;;0.50;;
64938;SDS011;51453;47.738;7.420;2022-08-07T02:11:11;2.35;;;0.95;;
64938;SDS011;51453;47.738;7.420;2022-08-07T02:13:37;1.23;;;0.55;;
64938;SDS011;51453;47.738;7.420;2022-08-07T02:16:05;3.33;;;0.65;;
64938;SDS011;51453;47.738;7.420;2022-08-07T02:18:33;1.15;;;0.50;;
64938;SDS011;51453;47.738;7.420;2022-08-07T02:21:02;2.13;;;0.50;;
64938;SDS011;51453;47.738;7.420;2022-08-07T02:23:30;1.30;;;0.63;;
64938;SDS011;51453;47.738;7.420;2022-08-07T02:26:00;0.60;;;0.47;;
64938;SDS011;51453;47.738;7.420;2022-08-07T02:28:29;1.30;;;0.60;;
64938;SDS011;51453;47.738;7.420;2022-08-07T02:30:57;0.70;;;0.50;;
64938;SDS011;51453;47.738;7.420;2022-08-07T02:33:25;0.43;;;0.30;;
64938;SDS011;51453;47.738;7.420;2022-08-07T02:35:52;1.65;;;0.50;;
64938;SDS011;51453;47.738;7.420;2022-08-07T02:38:19;3.45;;;0.45;;
64938;SDS011;51453;47.738;7.420;2022-08-07T02:40:51;1.33;;;0.50;;
64938;SDS011;51453;47.738;7.420;2022-08-07T02:43:18;2.60;;;0.68;;
64938;SDS011;51453;47.738;7.420;2022-08-07T02:45:44;1.90;;;0.43;;
64938;SDS011;51453;47.738;7.420;2022-08-07T02:48:11;0.57;;;0.52;;
64938;SDS011;51453;47.738;7.420;2022-08-07T02:50:39;2.45;;;0.65;;
64938;SDS011;51453;47.738;7.420;2022-08-07T02:53:08;2.65;;;0.63;;
64938;SDS011;51453;47.738;7.420;2022-08-07T02:55:38;1.25;;;0.43;;
64938;SDS011;51453;47.738;7.420;2022-08-07T02:58:11;0.88;;;0.50;;
64938;SDS011;51453;47.738;7.420;2022-08-07T03:00:43;2.88;;;0.60;;
64938;SDS011;51453;47.738;7.420;2022-08-07T03:03:10;1.20;;;0.50;;
64938;SDS011;51453;47.738;7.420;2022-08-07T03:05:36;2.13;;;0.50;;
64938;SDS011;51453;47.738;7.420;2022-08-07T03:08:03;1.27;;;0.50;;
64938;SDS011;51453;47.738;7.420;2022-08-07T03:10:31;3.45;;;0.57;;
64938;SDS011;51453;47.738;7.420;2022-08-07T03:12:57;2.20;;;0.50;;
64938;SDS011;51453;47.738;7.420;2022-08-07T03:15:23;1.75;;;0.35;;
64938;SDS011;51453;47.738;7.420;2022-08-07T03:17:49;2.53;;;0.57;;
64938;SDS011;51453;47.738;7.420;2022-08-07T03:20:16;1.05;;;0.50;;
64938;SDS011;51453;47.738;7.420;2022-08-07T03:22:42;2.88;;;0.55;;
64938;SDS011;51453;47.738;7.420;2022-08-07T03:25:10;3.28;;;0.60;;
64938;SDS011;51453;47.738;7.420;2022-08-07T03:27:36;1.23;;;0.40;;
64938;SDS011;51453;47.738;7.420;2022-08-07T03:30:04;2.13;;;0.77;;
64938;SDS011;51453;47.738;7.420;2022-08-07T03:32:33;1.05;;;0.40;;
64938;SDS011;51453;47.738;7.420;2022-08-07T03:35:02;1.90;;;0.50;;
64938;SDS011;51453;47.738;7.420;2022-08-07T03:37:30;3.50;;;0.60;;
64938;SDS011;51453;47.738;7.420;2022-08-07T03:39:58;2.22;;;0.60;;
64938;SDS011;51453;47.738;7.420;2022-08-07T03:42:24;1.88;;;0.50;;
64938;SDS011;51453;47.738;7.420;2022-08-07T03:44:50;0.73;;;0.45;;
64938;SDS011;51453;47.738;7.420;2022-08-07T03:47:16;1.58;;;0.50;;
64938;SDS011;51453;47.738;7.420;2022-08-07T03:49:42;1.63;;;0.55;;
64938;SDS011;51453;47.738;7.420;2022-08-07T03:52:08;3.42;;;0.95;;
64938;SDS011;51453;47.738;7.420;2022-08-07T03:54:35;2.10;;;0.50;;
64938;SDS011;51453;47.738;7.420;2022-08-07T03:57:01;1.50;;;0.50;;
64938;SDS011;51453;47.738;7.420;2022-08-07T03:59:28;1.00;;;0.50;;
64938;SDS011;51453;47.738;7.420;2022-08-07T04:01:56;1.98;;;0.50;;
64938;SDS011;51453;47.738;7.420;2022-08-07T04:04:22;0.40;;;0.40;;
64938;SDS011;51453;47.738;7.420;2022-08-07T04:06:48;0.70;;;0.45;;
64938;SDS011;51453;47.738;7.420;2022-08-07T04:09:14;2.35;;;0.70;;
64938;SDS011;51453;47.738;7.420;2022-08-07T04:11:40;3.30;;;0.50;;
64938;SDS011;51453;47.738;7.420;2022-08-07T04:14:06;3.63;;;0.55;;
64938;SDS011;51453;47.738;7.420;2022-08-07T04:16:33;2.05;;;0.50;;
64938;SDS011;51453;47.738;7.420;2022-08-07T04:19:00;0.82;;;0.40;;
64938;SDS011;51453;47.738;7.420;2022-08-07T04:21:26;0.93;;;0.52;;
64938;SDS011;51453;47.738;7.420;2022-08-07T04:23:52;2.67;;;0.50;;
64938;SDS011;51453;47.738;7.420;2022-08-07T04:26:18;3.17;;;0.50;;
64938;SDS011;51453;47.738;7.420;2022-08-07T04:28:44;1.85;;;0.52;;
64938;SDS011;51453;47.738;7.420;2022-08-07T04:31:11;1.92;;;0.70;;
64938;SDS011;51453;47.738;7.420;2022-08-07T04:33:37;0.88;;;0.43;;
64938;SDS011;51453;47.738;7.420;2022-08-07T04:36:04;2.65;;;0.77;;
64938;SDS011;51453;47.738;7.420;2022-08-07T04:38:35;3.40;;;0.60;;
64938;SDS011;51453;47.738;7.420;2022-08-07T04:41:01;1.27;;;0.57;;
64938;SDS011;51453;47.738;7.420;2022-08-07T04:43:37;3.53;;;0.57;;
64938;SDS011;51453;47.738;7.420;2022-08-07T04:48:48;1.75;;;0.43;;
64938;SDS011;51453;47.738;7.420;2022-08-07T04:51:23;3.72;;;0.60;;
64938;SDS011;51453;47.738;7.420;2022-08-07T04:54:00;1.83;;;0.90;;
64938;SDS011;51453;47.738;7.420;2022-08-07T05:08:03;2.95;;;0.47;;
64938;SDS011;51453;47.738;7.420;2022-08-07T05:10:39;3.03;;;0.70;;
64938;SDS011;51453;47.738;7.420;2022-08-07T05:13:14;0.80;;;0.60;;
64938;SDS011;51453;47.738;7.420;2022-08-07T05:15:44;1.15;;;0.47;;
64938;SDS011;51453;47.738;7.420;2022-08-07T05:18:21;1.33;;;0.50;;
64938;SDS011;51453;47.738;7.420;2022-08-07T05:20:55;1.02;;;0.50;;
64938;SDS011;51453;47.738;7.420;2022-08-07T05:23:25;2.20;;;0.55;;
64938;SDS011;51453;47.738;7.420;2022-08-07T05:25:58;2.80;;;0.68;;
64938;SDS011;51453;47.738;7.420;2022-08-07T05:28:26;0.55;;;0.50;;
64938;SDS011;51453;47.738;7.420;2022-08-07T05:30:52;1.70;;;0.55;;
64938;SDS011;51453;47.738;7.420;2022-08-07T05:33:20;0.50;;;0.38;;
64938;SDS011;51453;47.738;7.420;2022-08-07T05:35:50;3.97;;;0.50;;
64938;SDS011;51453;47.738;7.420;2022-08-07T05:38:17;1.85;;;0.60;;
64938;SDS011;51453;47.738;7.420;2022-08-07T05:40:46;3.85;;;0.60;;
64938;SDS011;51453;47.738;7.420;2022-08-07T05:43:12;2.38;;;0.43;;
64938;SDS011;51453;47.738;7.420;2022-08-07T05:45:39;1.95;;;0.60;;
64938;SDS011;51453;47.738;7.420;2022-08-07T05:48:06;2.08;;;0.63;;
64938;SDS011;51453;47.738;7.420;2022-08-07T05:50:32;1.92;;;0.47;;
64938;SDS011;51453;47.738;7.420;2022-08-07T05:53:01;3.22;;;0.95;;
64938;SDS011;51453;47.738;7.420;2022-08-07T05:55:28;0.40;;;0.40;;
64938;SDS011;51453;47.738;7.420;2022-08-07T05:57:57;2.20;;;0.82;;
64938;SDS011;51453;47.738;7.420;2022-08-07T06:00:24;3.80;;;0.80;;
64938;SDS011;51453;47.738;7.420;2022-08-07T06:02:50;2.30;;;0.50;;
64938;SDS011;51453;47.738;7.420;2022-08-07T06:05:19;2.42;;;0.80;;
64938;SDS011;51453;47.738;7.420;2022-08-07T06:07:45;3.72;;;0.70;;
64938;SDS011;51453;47.738;7.420;2022-08-07T06:10:13;4.25;;;0.60;;
64938;SDS011;51453;47.738;7.420;2022-08-07T06:12:39;3.67;;;0.60;;
64938;SDS011;51453;47.738;7.420;2022-08-07T06:15:05;1.52;;;0.60;;
64938;SDS011;51453;47.738;7.420;2022-08-07T06:17:33;0.75;;;0.50;;
64938;SDS011;51453;47.738;7.420;2022-08-07T06:19:59;1.17;;;0.70;;
64938;SDS011;51453;47.738;7.420;2022-08-07T06:22:26;2.10;;;0.65;;
64938;SDS011;51453;47.738;7.420;2022-08-07T06:24:56;2.05;;;0.80;;
64938;SDS011;51453;47.738;7.420;2022-08-07T06:27:24;3.25;;;0.77;;
64938;SDS011;51453;47.738;7.420;2022-08-07T06:29:50;1.85;;;0.60;;
64938;SDS011;51453;47.738;7.420;2022-08-07T06:32:16;3.33;;;0.65;;
64938;SDS011;51453;47.738;7.420;2022-08-07T06:34:42;4.25;;;0.70;;
64938;SDS011;51453;47.738;7.420;2022-08-07T06:37:08;1.45;;;0.60;;
64938;SDS011;51453;47.738;7.420;2022-08-07T06:39:34;2.47;;;0.77;;
64938;SDS011;51453;47.738;7.420;2022-08-07T06:44:46;2.28;;;0.60;;
64938;SDS011;51453;47.738;7.420;2022-08-07T06:47:13;3.95;;;0.70;;
64938;SDS011;51453;47.738;7.420;2022-08-07T06:49:39;2.15;;;0.68;;
64938;SDS011;51453;47.738;7.420;2022-08-07T06:52:07;0.85;;;0.52;;
64938;SDS011;51453;47.738;7.420;2022-08-07T06:54:34;3.58;;;0.60;;
64938;SDS011;51453;47.738;7.420;2022-08-07T06:57:02;2.08;;;0.80;;
64938;SDS011;51453;47.738;7.420;2022-08-07T06:59:34;1.15;;;0.60;;
64938;SDS011;51453;47.738;7.420;2022-08-07T07:02:02;5.70;;;1.10;;
64938;SDS011;51453;47.738;7.420;2022-08-07T07:04:29;4.32;;;0.85;;
64938;SDS011;51453;47.738;7.420;2022-08-07T07:06:56;3.17;;;0.75;;
64938;SDS011;51453;47.738;7.420;2022-08-07T07:09:26;5.43;;;0.57;;
64938;SDS011;51453;47.738;7.420;2022-08-07T07:14:32;2.53;;;0.73;;
64938;SDS011;51453;47.738;7.420;2022-08-07T07:17:26;1.15;;;0.63;;
64938;SDS011;51453;47.738;7.420;2022-08-07T07:20:17;2.22;;;0.75;;
64938;SDS011;51453;47.738;7.420;2022-08-07T07:22:45;2.72;;;1.10;;
64938;SDS011;51453;47.738;7.420;2022-08-07T07:25:12;8.60;;;0.70;;
64938;SDS011;51453;47.738;7.420;2022-08-07T07:27:46;2.60;;;0.70;;
64938;SDS011;51453;47.738;7.420;2022-08-07T07:30:17;1.15;;;0.80;;
64938;SDS011;51453;47.738;7.420;2022-08-07T07:32:46;2.92;;;0.70;;
64938;SDS011;51453;47.738;7.420;2022-08-07T07:35:13;4.93;;;1.00;;
64938;SDS011;51453;47.738;7.420;2022-08-07T07:37:40;4.80;;;0.90;;
64938;SDS011;51453;47.738;7.420;2022-08-07T07:40:10;2.17;;;0.82;;
64938;SDS011;51453;47.738;7.420;2022-08-07T07:42:40;3.05;;;0.68;;
64938;SDS011;51453;47.738;7.420;2022-08-07T07:45:08;2.58;;;1.13;;
64938;SDS011;51453;47.738;7.420;2022-08-07T07:47:36;1.77;;;0.90;;
64938;SDS011;51453;47.738;7.420;2022-08-07T07:50:06;2.15;;;0.80;;
64938;SDS011;51453;47.738;7.420;2022-08-07T07:52:33;1.83;;;0.90;;
64938;SDS011;51453;47.738;7.420;2022-08-07T07:55:02;1.10;;;0.93;;
64938;SDS011;51453;47.738;7.420;2022-08-07T07:57:29;2.38;;;0.82;;
64938;SDS011;51453;47.738;7.420;2022-08-07T07:59:57;3.33;;;0.80;;
64938;SDS011;51453;47.738;7.420;2022-08-07T08:02:25;1.17;;;0.77;;
64938;SDS011;51453;47.738;7.420;2022-08-07T08:04:54;1.63;;;0.90;;
64938;SDS011;51453;47.738;7.420;2022-08-07T08:07:21;3.42;;;0.80;;
64938;SDS011;51453;47.738;7.420;2022-08-07T08:09:49;1.13;;;0.80;;
64938;SDS011;51453;47.738;7.420;2022-08-07T08:12:17;2.75;;;0.85;;
64938;SDS011;51453;47.738;7.420;2022-08-07T08:14:43;1.75;;;0.65;;
64938;SDS011;51453;47.738;7.420;2022-08-07T08:17:09;1.95;;;0.98;;
64938;SDS011;51453;47.738;7.420;2022-08-07T08:19:36;1.50;;;0.80;;
64938;SDS011;51453;47.738;7.420;2022-08-07T08:22:03;1.77;;;0.85;;
64938;SDS011;51453;47.738;7.420;2022-08-07T08:24:50;4.35;;;0.95;;
64938;SDS011;51453;47.738;7.420;2022-08-07T08:27:36;1.92;;;1.10;;
64938;SDS011;51453;47.738;7.420;2022-08-07T08:30:08;2.05;;;1.00;;
64938;SDS011;51453;47.738;7.420;2022-08-07T08:32:55;3.85;;;1.10;;
64938;SDS011;51453;47.738;7.420;2022-08-07T08:35:24;2.58;;;1.08;;
64938;SDS011;51453;47.738;7.420;2022-08-07T08:37:55;1.10;;;1.00;;
64938;SDS011;51453;47.738;7.420;2022-08-07T08:40:26;1.20;;;1.10;;
64938;SDS011;51453;47.738;7.420;2022-08-07T08:43:39;1.20;;;1.10;;
64938;SDS011;51453;47.738;7.420;2022-08-07T08:45:52;1.95;;;1.10;;
64938;SDS011;51453;47.738;7.420;2022-08-07T08:53:43;2.20;;;1.23;;
64938;SDS011;51453;47.738;7.420;2022-08-07T08:56:11;1.92;;;1.33;;
64938;SDS011;51453;47.738;7.420;2022-08-07T09:10:22;1.40;;;1.30;;
64938;SDS011;51453;47.738;7.420;2022-08-07T09:13:04;1.60;;;1.27;;
64938;SDS011;51453;47.738;7.420;2022-08-07T09:15:57;3.88;;;1.08;;
64938;SDS011;51453;47.738;7.420;2022-08-07T09:24:25;3.28;;;1.17;;
64938;SDS011;51453;47.738;7.420;2022-08-07T09:32:27;1.50;;;1.30;;
64938;SDS011;51453;47.738;7.420;2022-08-07T09:37:57;1.30;;;1.15;;
64938;SDS011;51453;47.738;7.420;2022-08-07T09:43:47;2.80;;;1.25;;
64938;SDS011;51453;47.738;7.420;2022-08-07T09:49:42;3.60;;;1.38;;
64938;SDS011;51453;47.738;7.420;2022-08-07T09:52:28;3.70;;;1.60;;
64938;SDS011;51453;47.738;7.420;2022-08-07T10:30:12;6.78;;;1.73;;
64938;SDS011;51453;47.738;7.420;2022-08-07T10:33:18;1.80;;;1.50;;
64938;SDS011;51453;47.738;7.420;2022-08-07T10:41:50;2.20;;;1.40;;
64938;SDS011;51453;47.738;7.420;2022-08-07T10:44:38;2.88;;;1.75;;
64938;SDS011;51453;47.738;7.420;2022-08-07T10:47:18;1.58;;;1.48;;
64938;SDS011;51453;47.738;7.420;2022-08-07T10:49:47;2.75;;;1.55;;
64938;SDS011;51453;47.738;7.420;2022-08-07T10:52:42;3.22;;;1.50;;
64938;SDS011;51453;47.738;7.420;2022-08-07T10:55:17;2.45;;;1.20;;
64938;SDS011;51453;47.738;7.420;2022-08-07T11:00:29;1.43;;;1.33;;
64938;SDS011;51453;47.738;7.420;2022-08-07T11:03:08;1.52;;;1.42;;
64938;SDS011;51453;47.738;7.420;2022-08-07T11:05:48;10.05;;;1.40;;
64938;SDS011;51453;47.738;7.420;2022-08-07T11:08:32;1.83;;;1.52;;
64938;SDS011;51453;47.738;7.420;2022-08-07T11:19:03;1.75;;;1.42;;
64938;SDS011;51453;47.738;7.420;2022-08-07T11:24:54;4.63;;;1.42;;
64938;SDS011;51453;47.738;7.420;2022-08-07T11:30:18;4.20;;;1.50;;
64938;SDS011;51453;47.738;7.420;2022-08-07T11:32:56;2.70;;;1.20;;
64938;SDS011;51453;47.738;7.420;2022-08-07T11:35:27;3.85;;;1.20;;
64938;SDS011;51453;47.738;7.420;2022-08-07T11:43:20;7.32;;;1.58;;
64938;SDS011;51453;47.738;7.420;2022-08-07T12:08:53;1.90;;;1.52;;
64938;SDS011;51453;47.738;7.420;2022-08-07T12:11:26;3.30;;;1.50;;
64938;SDS011;51453;47.738;7.420;2022-08-07T12:14:09;3.50;;;1.40;;
64938;SDS011;51453;47.738;7.420;2022-08-07T12:16:41;1.45;;;1.30;;
64938;SDS011;51453;47.738;7.420;2022-08-07T12:19:33;2.15;;;1.40;;
64938;SDS011;51453;47.738;7.420;2022-08-07T12:28:19;1.38;;;1.23;;
64938;SDS011;51453;47.738;7.420;2022-08-07T12:30:52;2.38;;;1.58;;
64938;SDS011;51453;47.738;7.420;2022-08-07T12:33:22;2.15;;;1.27;;
64938;SDS011;51453;47.738;7.420;2022-08-07T12:35:52;1.55;;;1.33;;
64938;SDS011;51453;47.738;7.420;2022-08-07T12:38:21;1.40;;;1.30;;
64938;SDS011;51453;47.738;7.420;2022-08-07T12:40:48;1.60;;;1.30;;
64938;SDS011;51453;47.738;7.420;2022-08-07T12:43:19;2.85;;;1.20;;
64938;SDS011;51453;47.738;7.420;2022-08-07T12:45:57;1.50;;;1.10;;
64938;SDS011;51453;47.738;7.420;2022-08-07T12:51:20;3.55;;;1.13;;
64938;SDS011;51453;47.738;7.420;2022-08-07T12:53:52;1.50;;;1.40;;
64938;SDS011;51453;47.738;7.420;2022-08-07T12:59:07;4.47;;;1.30;;
64938;SDS011;51453;47.738;7.420;2022-08-07T13:10:29;1.25;;;1.00;;
64938;SDS011;51453;47.738;7.420;2022-08-07T13:15:45;2.05;;;1.27;;
64938;SDS011;51453;47.738;7.420;2022-08-07T13:21:00;1.70;;;1.40;;
64938;SDS011;51453;47.738;7.420;2022-08-07T13:26:10;2.03;;;1.30;;
64938;SDS011;51453;47.738;7.420;2022-08-07T13:32:01;1.80;;;1.25;;
64938;SDS011;51453;47.738;7.420;2022-08-07T13:42:29;4.15;;;1.27;;
64938;SDS011;51453;47.738;7.420;2022-08-07T13:44:56;1.13;;;1.10;;
64938;SDS011;51453;47.738;7.420;2022-08-07T13:47:25;3.72;;;1.70;;
64938;SDS011;51453;47.738;7.420;2022-08-07T13:49:53;3.13;;;1.40;;
64938;SDS011;51453;47.738;7.420;2022-08-07T13:52:23;4.65;;;1.27;;
64938;SDS011;51453;47.738;7.420;2022-08-07T13:54:50;1.67;;;1.20;;
64938;SDS011;51453;47.738;7.420;2022-08-07T13:57:21;4.80;;;1.42;;
64938;SDS011;51453;47.738;7.420;2022-08-07T13:59:51;5.05;;;1.38;;
64938;SDS011;51453;47.738;7.420;2022-08-07T14:02:22;4.50;;;1.20;;
64938;SDS011;51453;47.738;7.420;2022-08-07T14:05:11;1.93;;;1.30;;
64938;SDS011;51453;47.738;7.420;2022-08-07T14:07:44;1.23;;;1.13;;
64938;SDS011;51453;47.738;7.420;2022-08-07T14:10:13;1.65;;;1.08;;
64938;SDS011;51453;47.738;7.420;2022-08-07T14:12:42;1.52;;;1.20;;
64938;SDS011;51453;47.738;7.420;2022-08-07T14:15:37;3.55;;;1.23;;
64938;SDS011;51453;47.738;7.420;2022-08-07T14:18:03;1.52;;;1.20;;
64938;SDS011;51453;47.738;7.420;2022-08-07T14:20:51;1.65;;;1.30;;
64938;SDS011;51453;47.738;7.420;2022-08-07T14:23:27;2.60;;;1.20;;
64938;SDS011;51453;47.738;7.420;2022-08-07T14:25:54;2.25;;;1.30;;
64938;SDS011;51453;47.738;7.420;2022-08-07T14:28:24;2.60;;;1.50;;
64938;SDS011;51453;47.738;7.420;2022-08-07T14:30:53;2.47;;;1.20;;
64938;SDS011;51453;47.738;7.420;2022-08-07T14:33:20;1.48;;;1.13;;
64938;SDS011;51453;47.738;7.420;2022-08-07T14:35:52;1.10;;;1.10;;
64938;SDS011;51453;47.738;7.420;2022-08-07T14:38:22;4.10;;;1.35;;
64938;SDS011;51453;47.738;7.420;2022-08-07T14:40:58;4.47;;;1.30;;
64938;SDS011;51453;47.738;7.420;2022-08-07T14:43:27;1.58;;;1.35;;
64938;SDS011;51453;47.738;7.420;2022-08-07T14:45:55;1.73;;;1.20;;
64938;SDS011;51453;47.738;7.420;2022-08-07T14:48:26;1.40;;;1.00;;
64938;SDS011;51453;47.738;7.420;2022-08-07T14:50:55;1.98;;;1.20;;
64938;SDS011;51453;47.738;7.420;2022-08-07T14:53:23;2.05;;;1.10;;
64938;SDS011;51453;47.738;7.420;2022-08-07T14:55:51;1.67;;;1.20;;
64938;SDS011;51453;47.738;7.420;2022-08-07T14:58:20;1.15;;;1.10;;
64938;SDS011;51453;47.738;7.420;2022-08-07T15:00:50;2.90;;;1.15;;
64938;SDS011;51453;47.738;7.420;2022-08-07T15:03:22;1.70;;;1.05;;
64938;SDS011;51453;47.738;7.420;2022-08-07T15:05:50;1.65;;;1.13;;
64938;SDS011;51453;47.738;7.420;2022-08-07T15:08:24;4.72;;;1.02;;
64938;SDS011;51453;47.738;7.420;2022-08-07T15:11:13;2.42;;;1.10;;
64938;SDS011;51453;47.738;7.420;2022-08-07T15:13:59;2.67;;;1.15;;
64938;SDS011;51453;47.738;7.420;2022-08-07T15:16:35;1.02;;;1.00;;
64938;SDS011;51453;47.738;7.420;2022-08-07T15:19:07;1.98;;;1.23;;
64938;SDS011;51453;47.738;7.420;2022-08-07T15:21:41;1.23;;;1.10;;
64938;SDS011;51453;47.738;7.420;2022-08-07T15:24:14;1.10;;;1.10;;
64938;SDS011;51453;47.738;7.420;2022-08-07T15:26:44;1.48;;;1.20;;
64938;SDS011;51453;47.738;7.420;2022-08-07T15:29:15;1.60;;;1.33;;
64938;SDS011;51453;47.738;7.420;2022-08-07T15:31:43;1.63;;;1.33;;
64938;SDS011;51453;47.738;7.420;2022-08-07T15:34:16;1.13;;;1.00;;
64938;SDS011;51453;47.738;7.420;2022-08-07T15:36:44;3.95;;;1.10;;
64938;SDS011;51453;47.738;7.420;2022-08-07T15:39:12;1.20;;;1.15;;
64938;SDS011;51453;47.738;7.420;2022-08-07T15:41:59;1.45;;;1.25;;
64938;SDS011;51453;47.738;7.420;2022-08-07T15:44:28;1.63;;;1.10;;
64938;SDS011;51453;47.738;7.420;2022-08-07T15:47:06;2.97;;;1.40;;
64938;SDS011;51453;47.738;7.420;2022-08-07T15:49:33;2.13;;;1.35;;
64938;SDS011;51453;47.738;7.420;2022-08-07T15:52:01;4.22;;;1.67;;
64938;SDS011;51453;47.738;7.420;2022-08-07T15:54:35;4.32;;;1.73;;
64938;SDS011;51453;47.738;7.420;2022-08-07T15:57:03;2.40;;;1.65;;
64938;SDS011;51453;47.738;7.420;2022-08-07T15:59:32;2.30;;;1.58;;
64938;SDS011;51453;47.738;7.420;2022-08-07T16:02:02;2.97;;;1.75;;
64938;SDS011;51453;47.738;7.420;2022-08-07T16:04:31;2.90;;;1.70;;
64938;SDS011;51453;47.738;7.420;2022-08-07T16:07:00;2.05;;;1.70;;
64938;SDS011;51453;47.738;7.420;2022-08-07T16:09:31;3.05;;;1.70;;
64938;SDS011;51453;47.738;7.420;2022-08-07T16:14:56;4.25;;;1.50;;
64938;SDS011;51453;47.738;7.420;2022-08-07T16:17:43;2.97;;;1.60;;
64938;SDS011;51453;47.738;7.420;2022-08-07T16:31:05;2.03;;;1.05;;
64938;SDS011;51453;47.738;7.420;2022-08-07T16:34:03;1.52;;;1.15;;
64938;SDS011;51453;47.738;7.420;2022-08-07T16:54:58;2.90;;;1.00;;
64938;SDS011;51453;47.738;7.420;2022-08-07T16:57:44;2.40;;;1.30;;
64938;SDS011;51453;47.738;7.420;2022-08-07T17:00:17;2.38;;;1.00;;
64938;SDS011;51453;47.738;7.420;2022-08-07T17:05:42;0.90;;;0.90;;
64938;SDS011;51453;47.738;7.420;2022-08-07T17:08:33;0.80;;;0.77;;
64938;SDS011;51453;47.738;7.420;2022-08-07T17:10:58;1.70;;;0.98;;
64938;SDS011;51453;47.738;7.420;2022-08-07T17:16:06;2.55;;;1.00;;
64938;SDS011;51453;47.738;7.420;2022-08-07T17:21:26;2.10;;;0.90;;
64938;SDS011;51453;47.738;7.420;2022-08-07T17:29:28;3.97;;;1.02;;
64938;SDS011;51453;47.738;7.420;2022-08-07T17:34:47;1.65;;;0.90;;
64938;SDS011;51453;47.738;7.420;2022-08-07T17:37:19;0.93;;;0.70;;
64938;SDS011;51453;47.738;7.420;2022-08-07T17:45:20;1.02;;;0.90;;
64938;SDS011;51453;47.738;7.420;2022-08-07T17:53:08;2.58;;;1.08;;
64938;SDS011;51453;47.738;7.420;2022-08-07T17:55:46;0.70;;;0.70;;
64938;SDS011;51453;47.738;7.420;2022-08-07T17:58:20;2.03;;;0.77;;
64938;SDS011;51453;47.738;7.420;2022-08-07T18:00:53;1.85;;;0.70;;
64938;SDS011;51453;47.738;7.420;2022-08-07T18:03:32;3.65;;;0.60;;
64938;SDS011;51453;47.738;7.420;2022-08-07T18:06:09;1.20;;;0.60;;
64938;SDS011;51453;47.738;7.420;2022-08-07T18:16:43;0.88;;;0.60;;
64938;SDS011;51453;47.738;7.420;2022-08-07T18:19:20;0.75;;;0.60;;
64938;SDS011;51453;47.738;7.420;2022-08-07T18:21:54;1.52;;;0.60;;
64938;SDS011;51453;47.738;7.420;2022-08-07T18:30:06;1.95;;;0.60;;
64938;SDS011;51453;47.738;7.420;2022-08-07T18:35:21;2.47;;;0.60;;
64938;SDS011;51453;47.738;7.420;2022-08-07T18:55:23;0.95;;;0.60;;
64938;SDS011;51453;47.738;7.420;2022-08-07T18:58:21;1.23;;;0.60;;
64938;SDS011;51453;47.738;7.420;2022-08-07T19:01:00;1.45;;;0.80;;
64938;SDS011;51453;47.738;7.420;2022-08-07T19:09:07;4.32;;;0.90;;
64938;SDS011;51453;47.738;7.420;2022-08-07T19:14:16;0.70;;;0.70;;
64938;SDS011;51453;47.738;7.420;2022-08-07T19:16:59;1.85;;;0.75;;
64938;SDS011;51453;47.738;7.420;2022-08-07T19:22:39;4.05;;;1.10;;
64938;SDS011;51453;47.738;7.420;2022-08-07T19:25:19;1.40;;;1.30;;
64938;SDS011;51453;47.738;7.420;2022-08-07T19:27:46;1.92;;;1.15;;
64938;SDS011;51453;47.738;7.420;2022-08-07T19:30:13;3.63;;;1.40;;
64938;SDS011;51453;47.738;7.420;2022-08-07T19:32:43;2.55;;;1.10;;
64938;SDS011;51453;47.738;7.420;2022-08-07T19:35:15;1.95;;;1.50;;
64938;SDS011;51453;47.738;7.420;2022-08-07T19:37:49;1.35;;;1.20;;
64938;SDS011;51453;47.738;7.420;2022-08-07T19:40:22;2.83;;;1.20;;
64938;SDS011;51453;47.738;7.420;2022-08-07T19:42:56;1.98;;;1.50;;
64938;SDS011;51453;47.738;7.420;2022-08-07T19:45:24;1.40;;;1.30;;
64938;SDS011;51453;47.738;7.420;2022-08-07T19:47:54;1.80;;;1.70;;
64938;SDS011;51453;47.738;7.420;2022-08-07T19:50:21;3.70;;;1.85;;
64938;SDS011;51453;47.738;7.420;2022-08-07T19:52:49;1.60;;;1.50;;
64938;SDS011;51453;47.738;7.420;2022-08-07T19:55:16;1.80;;;1.70;;
64938;SDS011;51453;47.738;7.420;2022-08-07T19:57:47;1.67;;;1.50;;